Terminal Aerodrome Forecast
Issued by NWS St Louis, MO

Home | Current Version | Previous Version | Text Only | Print | Product List | Glossary On
Versions: 1 2 3 4 5 6 7 8 9 10 11 12 13 14 15 16 17 18 19 20 21 22 23 24 25 26 27 28
000
FTUS43 KLSX 151500 AAB
TAFSTL
TAF AMD
KSTL 151540Z 1516/1618 15015G25KT 5SM BR OVC009
      TEMPO 1516/1517 3SM -RA BR OVC006
     FM151800 16015G25KT P6SM VCSH OVC015
     FM160200 25015KT P6SM OVC025
     FM160900 29014G22KT P6SM OVC015=

USA.gov is the U.S. government's official web portal to all federal, state and local government web resources and services.